createdAt,value
2019-02-22T00:00:11.928Z,6.01
2019-02-22T00:01:11.830Z,5.93
2019-02-22T00:02:11.727Z,5.92
2019-02-22T00:03:11.631Z,5.93
2019-02-22T00:04:11.543Z,6.01
2019-02-22T00:05:11.542Z,5.95
2019-02-22T00:06:11.329Z,5.87
2019-02-22T00:07:11.233Z,6.03
2019-02-22T00:08:11.133Z,6.01
2019-02-22T00:09:11.050Z,5.90
2019-02-22T00:10:10.948Z,5.85
2019-02-22T00:11:10.834Z,5.92
2019-02-22T00:12:10.842Z,5.92
2019-02-22T00:13:10.634Z,5.92
2019-02-22T00:14:10.554Z,6.01
2019-02-22T00:15:10.437Z,5.92
2019-02-22T00:16:10.340Z,5.92
2019-02-22T00:17:10.239Z,5.93
2019-02-22T00:18:10.142Z,5.85
2019-02-22T00:19:10.159Z,5.98
2019-02-22T00:20:09.941Z,6.01
2019-02-22T00:21:09.843Z,5.98
2019-02-22T00:22:09.744Z,5.95
2019-02-22T00:23:09.643Z,5.98
2019-02-22T00:24:09.561Z,6.05
2019-02-22T00:25:09.555Z,6.13
2019-02-22T00:26:11.125Z,5.99
2019-02-22T00:27:09.247Z,6.08
2019-02-22T00:28:09.149Z,6.08
2019-02-22T00:29:09.064Z,6.05
2019-02-22T00:30:08.948Z,6.05
2019-02-22T00:31:08.851Z,6.01
2019-02-22T00:32:08.752Z,5.99
2019-02-22T00:33:08.751Z,6.03
2019-02-22T00:34:08.569Z,6.05
2019-02-22T00:35:08.484Z,6.03
2019-02-22T00:36:08.431Z,6.02
2019-02-22T00:37:08.311Z,6.05
2019-02-22T00:38:08.156Z,6.02
2019-02-22T00:39:08.070Z,6.06
2019-02-22T00:40:07.963Z,6.08
2019-02-22T00:41:07.855Z,6.03
2019-02-22T00:42:07.755Z,6.06
2019-02-22T00:43:07.661Z,5.99
2019-02-22T00:44:07.578Z,6.10
2019-02-22T00:45:07.460Z,6.17
2019-02-22T00:46:07.379Z,6.03
2019-02-22T00:47:07.263Z,6.14
2019-02-22T00:48:07.161Z,6.14
2019-02-22T00:49:07.061Z,6.21
2019-02-22T00:50:06.978Z,6.19
2019-02-22T00:51:06.866Z,6.25
2019-02-22T00:52:06.767Z,6.20
2019-02-22T00:53:06.665Z,6.14
2019-02-22T00:54:06.577Z,6.14
2019-02-22T00:55:06.464Z,6.11
2019-02-22T00:56:06.367Z,6.14
2019-02-22T00:57:06.265Z,6.13
2019-02-22T00:58:06.167Z,6.20
2019-02-22T00:59:06.071Z,6.13
2019-02-22T01:00:05.988Z,6.21
2019-02-22T01:01:05.868Z,6.19
2019-02-22T01:02:05.770Z,6.16
2019-02-22T01:03:05.674Z,6.13
2019-02-22T01:04:05.575Z,6.17
2019-02-22T01:05:05.496Z,6.13
2019-02-22T01:06:05.372Z,6.24
2019-02-22T01:07:05.272Z,6.27
2019-02-22T01:08:05.174Z,6.25
2019-02-22T01:09:05.074Z,6.25
2019-02-22T01:10:04.992Z,6.24
2019-02-22T01:11:04.875Z,6.24
2019-02-22T01:12:04.777Z,6.21
2019-02-22T01:13:04.673Z,6.27
2019-02-22T01:14:04.579Z,6.25
2019-02-22T01:15:04.493Z,6.21
2019-02-22T01:16:04.379Z,6.28
2019-02-22T01:17:04.275Z,6.27
2019-02-22T01:18:04.192Z,6.27
2019-02-22T01:19:04.086Z,6.30
2019-02-22T01:20:04.009Z,6.17
2019-02-22T01:21:03.878Z,6.28
2019-02-22T01:22:03.786Z,6.25
2019-02-22T01:23:03.681Z,6.21
2019-02-22T01:24:03.582Z,6.25
2019-02-22T01:25:03.498Z,6.13
2019-02-22T01:26:03.386Z,6.21
2019-02-22T01:27:03.281Z,6.25
2019-02-22T01:28:03.194Z,6.28
2019-02-22T01:29:03.091Z,6.30
2019-02-22T01:30:03.003Z,6.30
2019-02-22T01:31:02.892Z,6.32
2019-02-22T01:32:02.787Z,6.46
2019-02-22T01:33:02.687Z,6.36
2019-02-22T01:34:02.592Z,6.42
2019-02-22T01:35:02.506Z,6.54
2019-02-22T01:36:02.406Z,6.46
2019-02-22T01:37:02.294Z,6.40
2019-02-22T01:38:02.195Z,6.40
2019-02-22T01:39:02.094Z,6.43
2019-02-22T01:40:02.062Z,6.40
2019-02-22T01:41:01.893Z,6.43
2019-02-22T01:42:01.799Z,6.45
2019-02-22T01:43:01.695Z,6.40
2019-02-22T01:44:01.597Z,6.45
2019-02-22T01:45:01.522Z,6.48
2019-02-22T01:46:01.398Z,6.53
2019-02-22T01:47:01.298Z,6.51
2019-02-22T01:48:01.197Z,6.40
2019-02-22T01:49:01.099Z,6.53
2019-02-22T01:50:01.013Z,6.36
2019-02-22T01:51:00.899Z,6.43
2019-02-22T01:52:00.798Z,6.43
2019-02-22T01:53:00.705Z,6.54
2019-02-22T01:54:00.602Z,6.45
2019-02-22T01:55:00.519Z,6.51
2019-02-22T01:56:00.502Z,6.51
2019-02-22T01:57:00.304Z,6.50
2019-02-22T01:58:00.202Z,6.38
2019-02-22T01:59:00.104Z,6.39
2019-02-22T02:00:00.019Z,6.46
2019-02-22T02:00:59.906Z,6.54
2019-02-22T02:01:59.806Z,6.48
2019-02-22T02:02:59.826Z,6.54
2019-02-22T02:03:59.606Z,6.50
2019-02-22T02:04:59.522Z,6.50
2019-02-22T02:05:59.408Z,6.48
2019-02-22T02:06:59.307Z,6.51
2019-02-22T02:07:59.213Z,6.45
2019-02-22T02:08:59.110Z,6.54
2019-02-22T02:09:59.133Z,6.54
2019-02-22T02:10:58.911Z,6.42
2019-02-22T02:11:58.813Z,6.48
2019-02-22T02:12:58.716Z,6.50
2019-02-22T02:13:58.615Z,6.55
2019-02-22T02:14:58.528Z,6.54
2019-02-22T02:15:58.412Z,6.48
2019-02-22T02:16:58.423Z,6.48
2019-02-22T02:17:58.217Z,6.57
2019-02-22T02:18:58.116Z,6.53
2019-02-22T02:19:58.034Z,6.51
2019-02-22T02:20:57.915Z,6.51
2019-02-22T02:21:57.816Z,6.53
2019-02-22T02:22:57.722Z,6.46
2019-02-22T02:23:57.725Z,6.48
2019-02-22T02:24:57.535Z,6.53
2019-02-22T02:25:57.420Z,6.55
2019-02-22T02:26:57.320Z,6.48
2019-02-22T02:27:57.222Z,6.50
2019-02-22T02:28:57.122Z,6.46
2019-02-22T02:29:57.040Z,6.51
2019-02-22T02:30:57.037Z,6.54
2019-02-22T02:31:56.825Z,6.48
2019-02-22T02:32:56.726Z,6.54
2019-02-22T02:33:56.633Z,6.55
2019-02-22T02:34:56.544Z,6.53
2019-02-22T02:35:56.427Z,6.54
2019-02-22T02:36:56.337Z,6.51
2019-02-22T02:37:56.328Z,6.51
2019-02-22T02:38:56.137Z,6.54
2019-02-22T02:39:56.047Z,6.51
2019-02-22T02:41:08.075Z,6.45
2019-02-22T02:41:55.829Z,6.55
2019-02-22T02:42:55.730Z,6.51
2019-02-22T02:43:55.629Z,6.54
2019-02-22T02:44:55.634Z,6.55
2019-02-22T02:45:55.449Z,6.50
2019-02-22T02:46:55.332Z,6.50
2019-02-22T02:47:55.233Z,6.51
2019-02-22T02:48:55.138Z,6.51
2019-02-22T02:49:55.061Z,6.55
2019-02-22T02:50:54.953Z,6.51
2019-02-22T02:51:54.937Z,6.53
2019-02-22T02:52:54.738Z,6.54
2019-02-22T02:53:54.637Z,6.60
2019-02-22T02:54:54.541Z,6.51
2019-02-22T02:55:54.459Z,6.55
2019-02-22T02:56:54.342Z,6.50
2019-02-22T02:57:54.240Z,6.51
2019-02-22T02:58:54.243Z,6.53
2019-02-22T02:59:54.045Z,6.54
2019-02-22T03:00:53.958Z,6.57
2019-02-22T03:01:53.844Z,6.51
2019-02-22T03:02:53.745Z,6.53
2019-02-22T03:03:53.645Z,6.48
2019-02-22T03:04:53.669Z,6.51
2019-02-22T03:05:53.462Z,6.55
2019-02-22T03:06:53.345Z,6.55
2019-02-22T03:07:53.248Z,6.53
2019-02-22T03:08:53.149Z,6.53
2019-02-22T03:09:53.051Z,6.60
2019-02-22T03:10:52.966Z,6.55
2019-02-22T03:11:52.860Z,6.55
2019-02-22T03:12:52.752Z,6.50
2019-02-22T03:13:52.652Z,6.51
2019-02-22T03:14:52.552Z,6.55
2019-02-22T03:15:52.473Z,6.50
2019-02-22T03:16:52.353Z,6.51
2019-02-22T03:17:52.255Z,6.48
2019-02-22T03:18:52.158Z,6.57
2019-02-22T03:19:52.055Z,6.48
2019-02-22T03:20:51.975Z,6.57
2019-02-22T03:21:51.867Z,6.53
2019-02-22T03:22:51.762Z,6.54
2019-02-22T03:23:51.714Z,6.51
2019-02-22T03:24:53.699Z,6.69
2019-02-22T03:25:51.481Z,6.60
2019-02-22T03:26:51.361Z,6.57
2019-02-22T03:27:51.260Z,6.65
2019-02-22T03:28:51.162Z,6.63
2019-02-22T03:29:51.066Z,6.57
2019-02-22T03:30:50.989Z,6.57
2019-02-22T03:31:50.866Z,6.64
2019-02-22T03:32:50.765Z,6.65
2019-02-22T03:33:50.668Z,6.63
2019-02-22T03:34:50.568Z,6.51
2019-02-22T03:35:50.486Z,6.50
2019-02-22T03:36:50.367Z,6.55
2019-02-22T03:37:50.267Z,6.54
2019-02-22T03:38:50.175Z,6.57
2019-02-22T03:39:50.076Z,6.55
2019-02-22T03:40:49.989Z,6.55
2019-02-22T03:41:49.872Z,6.57
2019-02-22T03:42:49.776Z,6.55
2019-02-22T03:43:49.675Z,6.60
2019-02-22T03:44:49.574Z,6.53
2019-02-22T03:45:49.492Z,6.60
2019-02-22T03:46:49.374Z,6.54
2019-02-22T03:47:49.276Z,6.53
2019-02-22T03:48:49.175Z,6.53
2019-02-22T03:49:49.077Z,6.55
2019-02-22T03:50:48.998Z,6.51
2019-02-22T03:51:48.880Z,6.61
2019-02-22T03:52:48.782Z,6.58
2019-02-22T03:53:48.685Z,6.53
2019-02-22T03:54:48.580Z,6.60
2019-02-22T03:55:48.499Z,6.61
2019-02-22T03:56:48.383Z,6.60
2019-02-22T03:57:48.285Z,6.64
2019-02-22T03:58:48.184Z,6.69
2019-02-22T03:59:50.931Z,6.65
2019-02-22T04:00:48.005Z,6.55
2019-02-22T04:01:47.888Z,6.64
2019-02-22T04:02:47.788Z,6.60
2019-02-22T04:03:47.690Z,6.57
2019-02-22T04:04:47.588Z,6.64
2019-02-22T04:05:47.521Z,6.63
2019-02-22T04:06:47.388Z,6.58
2019-02-22T04:07:47.293Z,6.68
2019-02-22T04:08:47.192Z,6.64
2019-02-22T04:09:47.095Z,6.61
2019-02-22T04:10:47.016Z,6.58
2019-02-22T04:11:46.895Z,6.68
2019-02-22T04:12:46.797Z,6.58
2019-02-22T04:13:46.701Z,6.60
2019-02-22T04:14:46.600Z,6.64
2019-02-22T04:15:46.513Z,6.55
2019-02-22T04:16:46.400Z,6.68
2019-02-22T04:17:46.310Z,6.53
2019-02-22T04:18:46.199Z,6.51
2019-02-22T04:19:46.104Z,6.61
2019-02-22T04:20:46.019Z,6.60
2019-02-22T04:21:45.902Z,6.53
2019-02-22T04:22:45.803Z,6.53
2019-02-22T04:23:45.702Z,6.58
2019-02-22T04:24:45.605Z,6.51
2019-02-22T04:25:45.504Z,6.53
2019-02-22T04:26:45.418Z,6.57
2019-02-22T04:27:45.321Z,6.50
2019-02-22T04:28:45.207Z,6.54
2019-02-22T04:29:45.105Z,6.55
2019-02-22T04:30:45.022Z,6.58
2019-02-22T04:31:44.924Z,6.55
2019-02-22T04:32:44.810Z,6.58
2019-02-22T04:33:44.708Z,6.69
2019-02-22T04:34:44.610Z,6.53
2019-02-22T04:35:44.517Z,6.60
2019-02-22T04:36:44.425Z,6.55
2019-02-22T04:37:44.315Z,6.48
2019-02-22T04:38:44.217Z,6.55
2019-02-22T04:39:44.115Z,6.53
2019-02-22T04:40:44.015Z,6.51
2019-02-22T04:41:43.930Z,6.55
2019-02-22T04:42:43.917Z,6.54
2019-02-22T04:43:43.717Z,6.50
2019-02-22T04:44:43.617Z,6.60
2019-02-22T04:45:43.523Z,6.55
2019-02-22T04:46:43.437Z,6.50
2019-02-22T04:47:43.322Z,6.50
2019-02-22T04:48:43.219Z,6.51
2019-02-22T04:49:43.132Z,6.54
2019-02-22T04:50:43.023Z,6.54
2019-02-22T04:51:42.939Z,6.48
2019-02-22T04:52:42.822Z,6.48
2019-02-22T04:53:42.723Z,6.48
2019-02-22T04:54:42.630Z,6.53
2019-02-22T04:55:42.524Z,6.38
2019-02-22T04:56:42.555Z,6.39
2019-02-22T04:57:42.327Z,6.43
2019-02-22T04:58:42.230Z,6.43
2019-02-22T04:59:42.129Z,6.53
2019-02-22T05:00:42.029Z,6.42
2019-02-22T05:01:41.945Z,6.40
2019-02-22T05:02:41.842Z,6.46
2019-02-22T05:03:41.853Z,6.39
2019-02-22T05:04:41.632Z,6.46
2019-02-22T05:05:41.531Z,6.45
2019-02-22T05:06:41.452Z,6.42
2019-02-22T05:07:41.336Z,6.50
2019-02-22T05:08:41.237Z,6.38
2019-02-22T05:09:41.136Z,6.42
2019-02-22T05:10:41.134Z,6.40
2019-02-22T05:11:40.952Z,6.46
2019-02-22T05:12:40.834Z,6.40
2019-02-22T05:13:40.737Z,6.46
2019-02-22T05:14:40.648Z,6.50
2019-02-22T05:15:40.538Z,6.45
2019-02-22T05:16:40.454Z,6.45
2019-02-22T05:17:40.438Z,6.45
2019-02-22T05:18:40.240Z,6.45
2019-02-22T05:19:40.145Z,6.39
2019-02-22T05:20:40.043Z,6.43
2019-02-22T05:21:39.990Z,6.43
2019-02-22T05:22:39.851Z,6.53
2019-02-22T05:23:39.745Z,6.42
2019-02-22T05:24:39.649Z,6.45
2019-02-22T05:25:39.548Z,6.50
2019-02-22T05:26:39.464Z,6.40
2019-02-22T05:27:39.343Z,6.50
2019-02-22T05:28:39.244Z,6.43
2019-02-22T05:29:39.145Z,6.45
2019-02-22T05:30:39.051Z,6.46
2019-02-22T05:31:38.966Z,6.40
2019-02-22T05:32:38.849Z,6.48
2019-02-22T05:33:38.752Z,6.50
2019-02-22T05:34:38.652Z,6.40
2019-02-22T05:35:38.552Z,6.40
2019-02-22T05:36:38.471Z,6.38
2019-02-22T05:37:38.355Z,6.32
2019-02-22T05:38:38.249Z,6.32
2019-02-22T05:39:38.153Z,6.40
2019-02-22T05:40:38.073Z,6.35
2019-02-22T05:41:37.977Z,6.35
2019-02-22T05:42:37.859Z,6.33
2019-02-22T05:43:37.756Z,6.33
2019-02-22T05:44:37.653Z,6.33
2019-02-22T05:45:37.556Z,6.38
2019-02-22T05:46:37.477Z,6.33
2019-02-22T05:47:37.355Z,6.40
2019-02-22T05:48:38.877Z,6.39
2019-02-22T05:49:37.159Z,6.36
2019-02-22T05:50:37.064Z,6.35
2019-02-22T05:51:36.979Z,6.42
2019-02-22T05:52:36.862Z,6.38
2019-02-22T05:53:37.076Z,6.40
2019-02-22T05:54:36.660Z,6.36
2019-02-22T05:55:36.562Z,6.30
2019-02-22T05:56:36.479Z,6.30
2019-02-22T05:57:36.366Z,6.20
2019-02-22T05:58:36.269Z,6.36
2019-02-22T05:59:36.166Z,6.32
2019-02-22T06:00:36.175Z,6.40
2019-02-22T06:01:35.988Z,6.35
2019-02-22T06:02:35.866Z,6.43
2019-02-22T06:03:35.767Z,6.42
2019-02-22T06:04:35.667Z,6.39
2019-02-22T06:05:35.572Z,6.36
2019-02-22T06:06:35.490Z,6.38
2019-02-22T06:07:35.370Z,6.35
2019-02-22T06:08:35.269Z,6.35
2019-02-22T06:09:35.173Z,6.40
2019-02-22T06:10:35.070Z,6.40
2019-02-22T06:11:35.108Z,6.38
2019-02-22T06:12:35.171Z,6.36
2019-02-22T06:13:34.775Z,6.33
2019-02-22T06:14:34.673Z,6.30
2019-02-22T06:15:34.578Z,6.38
2019-02-22T06:16:34.480Z,6.35
2019-02-22T06:17:34.401Z,6.38
2019-02-22T06:18:34.277Z,6.35
2019-02-22T06:19:34.178Z,6.38
2019-02-22T06:20:34.076Z,6.36
2019-02-22T06:21:33.978Z,6.32
2019-02-22T06:22:33.899Z,6.39
2019-02-22T06:23:33.780Z,6.27
2019-02-22T06:24:33.693Z,6.28
2019-02-22T06:25:33.582Z,6.27
2019-02-22T06:26:33.481Z,6.27
2019-02-22T06:27:33.401Z,6.25
2019-02-22T06:28:33.285Z,6.38
2019-02-22T06:29:33.183Z,6.27
2019-02-22T06:30:33.087Z,6.25
2019-02-22T06:31:32.987Z,6.25
2019-02-22T06:32:32.900Z,6.27
2019-02-22T06:33:32.788Z,6.24
2019-02-22T06:34:32.691Z,6.30
2019-02-22T06:35:32.587Z,6.38
2019-02-22T06:36:32.494Z,6.25
2019-02-22T06:37:32.408Z,6.27
2019-02-22T06:38:32.290Z,6.25
2019-02-22T06:39:32.195Z,6.14
2019-02-22T06:40:32.092Z,6.27
2019-02-22T06:41:31.992Z,6.27
2019-02-22T06:42:31.911Z,6.20
2019-02-22T06:43:31.794Z,6.30
2019-02-22T06:44:31.696Z,6.27
2019-02-22T06:45:31.595Z,6.30
2019-02-22T06:46:31.497Z,6.25
2019-02-22T06:47:31.415Z,6.30
2019-02-22T06:48:31.299Z,6.30
2019-02-22T06:49:31.195Z,6.24
2019-02-22T06:50:34.026Z,6.25
2019-02-22T06:51:31.001Z,6.30
2019-02-22T06:52:30.918Z,6.33
2019-02-22T06:53:30.797Z,6.32
2019-02-22T06:54:30.698Z,6.35
2019-02-22T06:55:30.616Z,6.35
2019-02-22T06:56:30.499Z,6.33
2019-02-22T06:57:30.421Z,6.35
2019-02-22T06:58:30.306Z,6.32
2019-02-22T06:59:30.203Z,6.36
2019-02-22T07:00:30.110Z,6.35
2019-02-22T07:01:30.005Z,6.39
2019-02-22T07:02:29.922Z,6.35
2019-02-22T07:03:29.813Z,6.30
2019-02-22T07:04:29.707Z,6.36
2019-02-22T07:05:29.606Z,6.28
2019-02-22T07:06:29.509Z,6.28
2019-02-22T07:07:29.436Z,6.27
2019-02-22T07:08:29.315Z,6.38
2019-02-22T07:09:29.210Z,6.35
2019-02-22T07:10:29.111Z,6.25
2019-02-22T07:11:29.010Z,6.28
2019-02-22T07:12:28.955Z,6.24
2019-02-22T07:13:28.811Z,6.28
2019-02-22T07:14:28.710Z,6.36
2019-02-22T07:15:28.615Z,6.32
2019-02-22T07:16:28.520Z,6.38
2019-02-22T07:17:28.435Z,6.30
2019-02-22T07:18:28.320Z,6.39
2019-02-22T07:19:28.216Z,6.40
2019-02-22T07:20:28.119Z,6.43
2019-02-22T07:21:38.863Z,6.36
2019-02-22T07:22:27.940Z,6.46
2019-02-22T07:23:27.821Z,6.53
2019-02-22T07:24:27.722Z,6.51
2019-02-22T07:25:27.623Z,6.51
2019-02-22T07:26:27.522Z,6.50
2019-02-22T07:27:27.430Z,6.60
2019-02-22T07:28:27.340Z,6.54
2019-02-22T07:29:27.224Z,6.55
2019-02-22T07:30:27.126Z,6.69
2019-02-22T07:31:27.024Z,6.60
2019-02-22T07:32:26.946Z,6.61
2019-02-22T07:33:26.827Z,6.53
2019-02-22T07:34:26.743Z,6.53
2019-02-22T07:35:26.637Z,6.55
2019-02-22T07:36:26.530Z,6.50
2019-02-22T07:37:26.436Z,6.48
2019-02-22T07:38:26.355Z,6.54
2019-02-22T07:39:28.182Z,6.57
2019-02-22T07:40:26.132Z,6.51
2019-02-22T07:41:26.031Z,6.55
2019-02-22T07:42:25.987Z,6.53
2019-02-22T07:43:25.853Z,6.51
2019-02-22T07:44:25.847Z,6.68
2019-02-22T07:45:25.636Z,6.55
2019-02-22T07:46:25.541Z,6.55
2019-02-22T07:47:25.443Z,6.63
2019-02-22T07:48:25.357Z,6.54
2019-02-22T07:49:25.241Z,6.61
2019-02-22T07:50:25.141Z,6.63
2019-02-22T07:51:25.144Z,6.54
2019-02-22T07:52:24.992Z,6.57
2019-02-22T07:53:24.863Z,6.60
2019-02-22T07:54:24.747Z,6.51
2019-02-22T07:55:24.650Z,6.55
2019-02-22T07:56:24.544Z,6.64
2019-02-22T07:57:24.446Z,6.68
2019-02-22T07:58:24.471Z,6.65
2019-02-22T07:59:24.252Z,6.60
2019-02-22T08:00:24.165Z,6.72
2019-02-22T08:01:26.894Z,6.58
2019-02-22T08:02:23.954Z,6.73
2019-02-22T08:03:23.883Z,6.76
2019-02-22T08:04:23.756Z,6.73
2019-02-22T08:05:23.757Z,6.75
2019-02-22T08:06:23.557Z,6.75
2019-02-22T08:07:23.459Z,6.69
2019-02-22T08:08:23.383Z,6.72
2019-02-22T08:09:23.259Z,6.79
2019-02-22T08:10:23.161Z,6.76
2019-02-22T08:11:23.063Z,6.71
2019-02-22T08:12:23.089Z,6.73
2019-02-22T08:13:22.871Z,6.68
2019-02-22T08:14:22.787Z,6.58
2019-02-22T08:15:22.671Z,6.71
2019-02-22T08:16:22.568Z,6.68
2019-02-22T08:17:22.471Z,6.57
2019-02-22T08:18:22.375Z,6.68
2019-02-22T08:19:22.388Z,6.60
2019-02-22T08:20:22.178Z,6.63
2019-02-22T08:21:22.079Z,6.55
2019-02-22T08:22:21.985Z,6.64
2019-02-22T08:23:21.876Z,6.69
2019-02-22T08:24:21.794Z,6.68
2019-02-22T08:25:21.677Z,6.71
2019-02-22T08:26:21.734Z,6.60
2019-02-22T08:27:21.493Z,6.61
2019-02-22T08:28:21.386Z,6.61
2019-02-22T08:29:21.300Z,6.63
2019-02-22T08:30:21.189Z,6.73
2019-02-22T08:31:21.085Z,6.72
2019-02-22T08:32:20.989Z,6.72
2019-02-22T08:33:21.006Z,6.76
2019-02-22T08:34:20.805Z,6.73
2019-02-22T08:35:20.690Z,6.75
2019-02-22T08:36:20.591Z,6.71
2019-02-22T08:37:20.494Z,6.72
2019-02-22T08:38:20.396Z,6.69
2019-02-22T08:39:20.313Z,6.75
2019-02-22T08:40:20.313Z,6.64
2019-02-22T08:41:20.113Z,6.72
2019-02-22T08:42:19.998Z,6.75
2019-02-22T08:43:30.738Z,6.73
2019-02-22T08:44:19.818Z,6.63
2019-02-22T08:45:19.714Z,6.63
2019-02-22T08:46:19.608Z,6.63
2019-02-22T08:47:19.609Z,6.68
2019-02-22T08:48:19.406Z,6.68
2019-02-22T08:49:19.323Z,6.57
2019-02-22T08:50:19.211Z,6.53
2019-02-22T08:51:19.117Z,6.64
2019-02-22T08:52:19.014Z,6.58
2019-02-22T08:53:19.047Z,6.61
2019-02-22T08:54:18.831Z,6.71
2019-02-22T08:55:18.728Z,6.54
2019-02-22T08:56:18.618Z,6.51
2019-02-22T08:57:18.518Z,6.48
2019-02-22T08:58:18.420Z,6.54
2019-02-22T08:59:18.338Z,6.61
2019-02-22T09:00:18.223Z,6.55
2019-02-22T09:01:18.124Z,6.72
2019-02-22T09:02:18.026Z,6.91
2019-02-22T09:03:17.934Z,6.93
2019-02-22T09:04:17.844Z,6.91
2019-02-22T09:05:17.734Z,6.89
2019-02-22T09:06:17.631Z,6.94
2019-02-22T09:07:17.531Z,6.89
2019-02-22T09:08:17.433Z,6.91
2019-02-22T09:09:17.350Z,6.91
2019-02-22T09:10:17.235Z,6.79
2019-02-22T09:11:17.143Z,6.96
2019-02-22T09:12:17.041Z,6.72
2019-02-22T09:13:16.941Z,6.78
2019-02-22T09:14:16.862Z,6.72
2019-02-22T09:15:16.746Z,6.79
2019-02-22T09:16:16.647Z,6.72
2019-02-22T09:17:16.551Z,6.86
2019-02-22T09:18:16.450Z,6.87
2019-02-22T09:19:16.372Z,6.90
2019-02-22T09:20:16.334Z,6.76
2019-02-22T09:21:16.187Z,6.79
2019-02-22T09:22:22.811Z,6.89
2019-02-22T09:23:15.957Z,6.87
2019-02-22T09:24:15.873Z,6.86
2019-02-22T09:25:15.852Z,6.75
2019-02-22T09:26:15.660Z,6.89
2019-02-22T09:27:15.561Z,6.73
2019-02-22T09:28:15.461Z,6.91
2019-02-22T09:29:15.384Z,6.76
2019-02-22T09:30:15.272Z,6.79
2019-02-22T09:31:15.170Z,6.90
2019-02-22T09:32:15.069Z,6.96
2019-02-22T09:33:14.971Z,6.99
2019-02-22T09:34:14.887Z,7.07
2019-02-22T09:35:14.772Z,7.14
2019-02-22T09:36:14.679Z,7.19
2019-02-22T09:37:14.575Z,7.12
2019-02-22T09:38:14.479Z,6.97
2019-02-22T09:39:14.397Z,7.05
2019-02-22T09:40:14.901Z,6.90
2019-02-22T09:41:14.185Z,6.87
2019-02-22T09:42:14.089Z,6.89
2019-02-22T09:43:13.986Z,6.73
2019-02-22T09:44:13.893Z,6.75
2019-02-22T09:45:13.811Z,6.69
2019-02-22T09:46:13.693Z,6.73
2019-02-22T09:47:13.591Z,6.75
2019-02-22T09:48:13.494Z,6.73
2019-02-22T09:49:13.398Z,6.73
2019-02-22T09:50:13.318Z,6.76
2019-02-22T09:51:13.198Z,6.73
2019-02-22T09:52:13.101Z,6.76
2019-02-22T09:53:13.005Z,6.76
2019-02-22T09:54:12.906Z,6.71
2019-02-22T09:55:12.820Z,6.82
2019-02-22T09:56:12.705Z,6.87
2019-02-22T09:57:12.607Z,6.86
2019-02-22T09:58:12.510Z,6.90
2019-02-22T09:59:12.413Z,6.82
2019-02-22T10:00:12.329Z,6.79
2019-02-22T10:01:12.212Z,6.72
2019-02-22T10:02:12.115Z,6.83
2019-02-22T10:03:12.017Z,6.76
2019-02-22T10:04:11.919Z,6.79
2019-02-22T10:05:11.837Z,6.73
2019-02-22T10:06:11.721Z,6.76
2019-02-22T10:07:11.624Z,6.81
2019-02-22T10:08:11.525Z,6.79
2019-02-22T10:09:11.429Z,6.75
2019-02-22T10:10:11.347Z,6.75
2019-02-22T10:11:11.231Z,6.76
2019-02-22T10:12:11.134Z,6.76
2019-02-22T10:13:11.035Z,6.72
2019-02-22T10:14:10.932Z,6.76
2019-02-22T10:15:10.939Z,6.78
2019-02-22T10:16:10.737Z,6.71
2019-02-22T10:17:10.642Z,6.71
2019-02-22T10:18:10.539Z,6.76
2019-02-22T10:19:10.445Z,6.79
2019-02-22T10:20:10.378Z,6.83
2019-02-22T10:21:10.245Z,6.75
2019-02-22T10:22:10.147Z,6.78
2019-02-22T10:23:10.047Z,6.89
2019-02-22T10:24:10.054Z,6.90
2019-02-22T10:25:09.869Z,6.91
2019-02-22T10:26:09.751Z,6.91
2019-02-22T10:27:12.038Z,7.04
2019-02-22T10:28:17.317Z,7.05
2019-02-22T10:29:09.462Z,7.15
2019-02-22T10:30:09.373Z,7.18
2019-02-22T10:31:09.378Z,7.36
2019-02-22T10:32:09.159Z,7.48
2019-02-22T10:33:09.072Z,7.63
2019-02-22T10:34:08.967Z,7.71
2019-02-22T10:35:08.884Z,7.84
2019-02-22T10:36:08.767Z,8.47
2019-02-22T10:37:08.673Z,9.08
2019-02-22T10:38:08.690Z,9.32
2019-02-22T10:39:08.479Z,9.04
2019-02-22T10:40:08.388Z,8.98
2019-02-22T10:41:08.279Z,9.44
2019-02-22T10:42:08.179Z,9.96
2019-02-22T10:43:08.089Z,9.62
2019-02-22T10:44:17.474Z,9.48
2019-02-22T10:45:07.910Z,9.19
2019-02-22T10:46:07.793Z,8.98
2019-02-22T10:47:07.697Z,8.68
2019-02-22T10:48:07.604Z,8.46
2019-02-22T10:49:07.506Z,8.29
2019-02-22T10:50:07.427Z,8.24
2019-02-22T10:51:07.312Z,8.17
2019-02-22T10:52:07.221Z,7.96
2019-02-22T10:53:07.125Z,8.06
2019-02-22T10:54:07.021Z,7.91
2019-02-22T10:55:06.945Z,7.99
2019-02-22T10:56:06.830Z,8.54
2019-02-22T10:57:06.849Z,8.64
2019-02-22T10:58:06.634Z,8.65
2019-02-22T10:59:06.544Z,9.15
2019-02-22T11:00:06.458Z,9.12
2019-02-22T11:01:06.346Z,8.93
2019-02-22T11:02:06.286Z,8.93
2019-02-22T11:03:06.156Z,8.89
2019-02-22T11:04:06.054Z,8.97
2019-02-22T11:05:05.978Z,9.85
2019-02-22T11:06:05.876Z,10.57
2019-02-22T11:07:05.772Z,10.75
2019-02-22T11:08:05.672Z,10.66
2019-02-22T11:09:05.576Z,11.67
2019-02-22T11:10:05.500Z,11.53
2019-02-22T11:11:05.386Z,10.91
2019-02-22T11:12:05.290Z,10.63
2019-02-22T11:13:05.194Z,10.06
2019-02-22T11:14:05.102Z,9.88
2019-02-22T11:15:05.023Z,9.68
2019-02-22T11:16:04.909Z,9.40
2019-02-22T11:17:04.822Z,9.35
2019-02-22T11:18:04.720Z,9.34
2019-02-22T11:19:04.631Z,9.17
2019-02-22T11:20:04.548Z,9.10
2019-02-22T11:21:04.436Z,9.12
2019-02-22T11:22:04.345Z,8.97
2019-02-22T11:23:04.252Z,8.89
2019-02-22T11:24:04.151Z,8.96
2019-02-22T11:25:04.077Z,8.96
2019-02-22T11:26:03.963Z,8.93
2019-02-22T11:27:03.871Z,8.94
2019-02-22T11:28:03.774Z,8.86
2019-02-22T11:29:03.681Z,8.86
2019-02-22T11:30:03.588Z,8.89
2019-02-22T11:31:03.513Z,8.83
2019-02-22T11:32:03.391Z,8.73
2019-02-22T11:33:03.301Z,8.49
2019-02-22T11:34:03.201Z,8.36
2019-02-22T11:35:03.108Z,8.21
2019-02-22T11:36:03.033Z,7.96
2019-02-22T11:37:02.916Z,7.81
2019-02-22T11:38:02.826Z,7.60
2019-02-22T11:39:02.731Z,7.52
2019-02-22T11:40:02.629Z,7.45
2019-02-22T11:41:02.549Z,7.42
2019-02-22T11:42:02.441Z,7.34
2019-02-22T11:43:02.343Z,7.34
2019-02-22T11:44:02.244Z,7.26
2019-02-22T11:45:02.254Z,7.34
2019-02-22T11:46:02.074Z,7.50
2019-02-22T11:47:01.958Z,7.52
2019-02-22T11:48:08.999Z,7.48
2019-02-22T11:49:01.763Z,7.42
2019-02-22T11:50:01.670Z,7.67
2019-02-22T11:51:01.589Z,7.92
2019-02-22T11:52:01.580Z,7.85
2019-02-22T11:53:01.379Z,7.84
2019-02-22T11:54:01.284Z,7.79
2019-02-22T11:55:01.211Z,7.48
2019-02-22T11:56:01.108Z,7.12
2019-02-22T11:57:01.023Z,7.05
2019-02-22T11:58:00.899Z,6.86
2019-02-22T11:59:00.901Z,6.76
2019-02-22T12:00:00.712Z,6.75
2019-02-22T12:01:00.625Z,6.73
2019-02-22T12:02:00.515Z,6.57
2019-02-22T12:03:12.229Z,6.60
2019-02-22T12:04:00.318Z,6.60
2019-02-22T12:05:00.243Z,6.39
2019-02-22T12:06:00.140Z,6.27
2019-02-22T12:07:00.027Z,6.33
2019-02-22T12:07:59.930Z,6.39
2019-02-22T12:08:59.832Z,6.35
2019-02-22T12:09:59.737Z,6.36
2019-02-22T12:10:59.654Z,6.30
2019-02-22T12:11:59.546Z,6.39
2019-02-22T12:12:59.445Z,6.43
2019-02-22T12:13:59.345Z,6.30
2019-02-22T12:14:59.252Z,6.35
2019-02-22T12:15:59.168Z,6.43
2019-02-22T12:16:59.061Z,6.50
2019-02-22T12:17:58.956Z,6.46
2019-02-22T12:18:58.859Z,6.46
2019-02-22T12:19:58.762Z,6.42
2019-02-22T12:20:58.685Z,6.54
2019-02-22T12:21:58.569Z,6.63
2019-02-22T12:22:58.468Z,6.61
2019-02-22T12:23:58.369Z,6.46
2019-02-22T12:24:58.277Z,6.55
2019-02-22T12:25:58.194Z,6.54
2019-02-22T12:26:58.098Z,6.39
2019-02-22T12:27:57.986Z,6.28
2019-02-22T12:28:57.883Z,6.35
2019-02-22T12:29:57.786Z,6.10
2019-02-22T12:30:57.720Z,5.98
2019-02-22T12:31:57.605Z,6.05
2019-02-22T12:32:57.491Z,6.01
2019-02-22T12:33:57.397Z,5.98
2019-02-22T12:34:57.297Z,5.92
2019-02-22T12:35:57.216Z,5.90
2019-02-22T12:36:57.099Z,5.81
2019-02-22T12:37:57.004Z,5.78
2019-02-22T12:38:56.903Z,5.66
2019-02-22T12:39:56.808Z,5.70
2019-02-22T12:40:56.723Z,5.70
2019-02-22T12:41:56.608Z,5.65
2019-02-22T12:42:56.509Z,5.63
2019-02-22T12:43:56.414Z,5.69
2019-02-22T12:45:02.930Z,5.67
2019-02-22T12:45:56.230Z,5.62
2019-02-22T12:46:56.115Z,5.56
2019-02-22T12:47:56.017Z,5.47
2019-02-22T12:48:55.921Z,5.41
2019-02-22T12:49:55.822Z,5.62
2019-02-22T12:50:55.743Z,5.52
2019-02-22T12:51:55.623Z,5.45
2019-02-22T12:52:55.531Z,5.33
2019-02-22T12:53:55.433Z,5.20
2019-02-22T12:54:55.330Z,5.20
2019-02-22T12:55:55.247Z,5.32
2019-02-22T12:56:57.380Z,5.27
2019-02-22T12:57:55.031Z,5.29
2019-02-22T12:58:54.930Z,5.37
2019-02-22T12:59:54.832Z,5.32
2019-02-22T13:00:54.749Z,5.24
2019-02-22T13:01:54.634Z,5.19
2019-02-22T13:03:02.012Z,5.30
2019-02-22T13:03:54.439Z,5.38
2019-02-22T13:04:54.338Z,5.35
2019-02-22T13:05:54.258Z,5.33
2019-02-22T13:06:54.142Z,5.40
2019-02-22T13:07:54.042Z,5.42
2019-02-22T13:08:53.946Z,5.45
2019-02-22T13:09:53.848Z,5.45
2019-02-22T13:10:53.765Z,5.45
2019-02-22T13:11:53.644Z,5.47
2019-02-22T13:12:53.545Z,5.40
2019-02-22T13:13:53.447Z,5.44
2019-02-22T13:14:53.362Z,5.45
2019-02-22T13:15:53.253Z,5.49
2019-02-22T13:16:53.173Z,5.52